Time;durP1;ratioP1;P1;durP2;ratioP2;P2;SDS_P1;SDS_P2;PMS_P1;PMS_P2;Temp;Humidity;BMP_temperature;BMP_pressure;BME280_temperature;BME280_humidity;BME280_pressure;Samples;Min_cycle;Max_cycle;Signal;HPM_P1;HPM_P2
2023/03/20 00:03:57;;;;;;;19.37;8.17;;;8.50;70.40;;;6.76;59.27;100174.66;10285402;28;96697;-84
2023/03/20 00:09:01;;;;;;;14.83;7.50;;;8.40;70.50;;;6.64;59.37;100166.91;10235714;28;96589;-84
2023/03/20 00:14:13;;;;;;;11.37;6.63;;;8.30;70.80;;;6.54;59.53;100171.41;10231697;28;96615;-84
2023/03/20 00:19:26;;;;;;;11.33;7.00;;;8.20;70.90;;;6.40;59.94;100167.38;10221972;28;96752;-84
2023/03/20 00:24:30;;;;;;;23.07;9.07;;;8.10;71.40;;;6.31;60.71;100167.41;10231591;28;96786;-84
2023/03/20 00:29:33;;;;;;;20.80;8.80;;;7.90;71.50;;;6.21;60.91;100162.13;10267161;28;96541;-87
2023/03/20 00:34:36;;;;;;;13.20;7.07;;;7.80;72.10;;;6.14;61.32;100172.44;10260111;28;98059;-84
2023/03/20 00:39:40;;;;;;;12.23;7.00;;;7.80;72.30;;;6.06;61.62;100166.19;10235656;28;98453;-84
2023/03/20 00:44:54;;;;;;;13.33;6.77;;;7.70;72.80;;;5.96;61.92;100168.81;10254991;28;98514;-83
2023/03/20 00:49:58;;;;;;;12.20;6.83;;;7.60;73.00;;;5.90;62.20;100183.38;10280412;28;96563;-83
2023/03/20 00:55:01;;;;;;;10.23;6.63;;;7.50;73.60;;;5.85;62.47;100171.56;10263118;28;98585;-83
2023/03/20 01:00:24;;;;;;;14.03;6.93;;;7.50;73.50;;;5.81;62.87;100172.78;10250915;28;98351;-84
2023/03/20 01:05:27;;;;;;;10.93;5.97;;;7.40;73.80;;;5.77;63.12;100174.91;10258341;28;97558;-83
2023/03/20 01:10:32;;;;;;;9.87;6.67;;;7.40;74.30;;;5.74;63.08;100169.06;10237716;28;97422;-83
2023/03/20 01:15:35;;;;;;;10.20;6.50;;;7.30;74.40;;;5.69;63.42;100173.91;10254414;28;96694;-84
2023/03/20 01:20:39;;;;;;;14.00;7.20;;;7.30;74.70;;;5.63;63.37;100162.91;10267845;28;96604;-85
2023/03/20 01:25:42;;;;;;;12.53;6.97;;;7.30;75.10;;;5.56;63.98;100164.44;10227582;28;96669;-84
2023/03/20 01:30:47;;;;;;;11.73;7.37;;;7.20;75.70;;;5.49;64.49;100162.50;10254536;28;97428;-85
2023/03/20 01:35:50;;;;;;;11.73;6.50;;;7.10;75.80;;;5.43;64.41;100158.59;10195862;28;96688;-84
2023/03/20 01:41:12;;;;;;;12.13;7.67;;;7.10;75.80;;;5.36;64.98;100153.03;10239513;28;96586;-84
2023/03/20 01:46:29;;;;;;;11.83;6.80;;;7.00;76.40;;;5.32;65.14;100153.44;10258043;28;97608;-85
2023/03/20 01:51:34;;;;;;;8.50;5.20;;;7.00;76.90;;;5.28;65.35;100149.44;10248387;28;96527;-85
2023/03/20 01:56:47;;;;;;;8.67;5.67;;;6.90;77.10;;;5.24;65.97;100148.84;10203355;28;97227;-85
2023/03/20 02:01:50;;;;;;;11.60;6.17;;;6.90;77.60;;;5.22;65.81;100147.34;10252437;28;96628;-85
2023/03/20 02:06:53;;;;;;;9.57;5.97;;;6.80;77.50;;;5.16;65.84;100145.22;10235254;28;96756;-85
2023/03/20 02:11:58;;;;;;;8.43;5.10;;;6.80;78.40;;;5.09;66.11;100148.38;10262417;28;97568;-85
2023/03/20 02:17:08;;;;;;;18.37;8.40;;;6.70;78.00;;;5.02;66.50;100139.34;10267005;28;98456;-86
2023/03/20 02:22:47;;;;;;;10.43;5.87;;;6.70;78.50;;;5.00;66.43;100149.19;10265524;28;97456;-85
2023/03/20 02:28:32;;;;;;;9.20;5.73;;;6.60;78.60;;;5.00;66.20;100141.28;10235456;28;98312;-85
2023/03/20 02:34:03;;;;;;;9.30;5.50;;;6.60;78.70;;;4.97;66.46;100146.81;10267726;28;96876;-85
2023/03/20 02:39:27;;;;;;;7.47;5.37;;;6.60;79.30;;;4.92;66.68;100142.91;10253190;28;98137;-84
2023/03/20 02:44:39;;;;;;;10.27;5.57;;;6.50;79.50;;;4.82;67.18;100135.81;10229570;28;98276;-84
2023/03/20 02:49:58;;;;;;;7.97;5.33;;;6.50;80.10;;;4.72;67.69;100136.75;10226065;28;96671;-84
2023/03/20 02:55:27;;;;;;;9.00;6.10;;;6.40;80.90;;;4.64;67.29;100133.94;10250403;28;96528;-84
2023/03/20 03:00:39;;;;;;;9.40;5.70;;;6.30;80.50;;;4.53;67.50;100126.97;10241169;28;96639;-84
2023/03/20 03:05:53;;;;;;;8.03;5.07;;;6.20;80.90;;;4.43;68.10;100132.16;10235410;28;99121;-83
2023/03/20 03:11:07;;;;;;;8.00;5.17;;;6.10;81.50;;;4.34;68.21;100132.13;10259630;28;96694;-82
2023/03/20 03:16:18;;;;;;;36.33;14.97;;;6.00;81.30;;;4.26;68.42;100130.16;10244338;28;96827;-82
2023/03/20 03:21:22;;;;;;;14.55;7.80;;;5.90;82.00;;;4.29;68.85;100124.59;10274291;28;97167;-85
2023/03/20 03:26:31;;;;;;;10.10;6.10;;;5.90;82.60;;;4.32;68.13;100124.38;10245909;28;96523;-83
2023/03/20 03:31:36;;;;;;;8.27;5.13;;;5.90;82.30;;;4.26;68.14;100117.00;10244494;28;96907;-84
2023/03/20 03:37:01;;;;;;;10.10;6.60;;;5.90;82.60;;;4.19;68.25;100134.22;10250583;28;96746;-84
2023/03/20 03:42:16;;;;;;;11.20;6.30;;;5.90;82.50;;;4.11;68.11;100118.28;10254537;28;96837;-83
2023/03/20 03:47:24;;;;;;;12.87;6.30;;;5.80;82.50;;;3.97;68.64;100128.16;10260168;28;96619;-84
2023/03/20 03:52:30;;;;;;;11.70;7.03;;;5.70;83.30;;;3.86;69.67;100133.44;10259665;28;96531;-84
2023/03/20 03:57:41;;;;;;;13.43;7.27;;;5.60;84.20;;;3.79;69.75;100142.81;10267162;28;96676;-84
2023/03/20 04:02:50;;;;;;;16.70;8.50;;;5.50;84.20;;;3.72;70.13;100146.91;10255147;28;98306;-84
2023/03/20 04:07:56;;;;;;;17.63;9.47;;;5.40;84.80;;;3.67;70.18;100149.91;10255765;28;98220;-84
2023/03/20 04:13:01;;;;;;;17.20;7.80;;;5.30;85.30;;;3.63;70.52;100147.63;10263296;28;97681;-84
2023/03/20 04:18:04;;;;;;;12.73;6.97;;;5.30;85.70;;;3.59;70.42;100160.19;10247247;28;96569;-84
2023/03/20 04:23:07;;;;;;;12.53;6.53;;;5.30;86.20;;;3.54;70.79;100158.88;10255746;28;96470;-85
2023/03/20 04:28:10;;;;;;;9.87;5.80;;;5.20;86.30;;;3.49;71.44;100161.91;10222339;28;96670;-84
2023/03/20 04:33:13;;;;;;;9.73;5.73;;;5.20;87.70;;;3.45;71.12;100169.19;10264190;28;98335;-85
2023/03/20 04:38:18;;;;;;;10.37;6.60;;;5.10;87.30;;;3.40;71.26;100173.13;10250090;28;96607;-85
2023/03/20 04:43:21;;;;;;;11.50;6.23;;;5.10;87.90;;;3.33;71.49;100171.97;10248165;28;98532;-87
2023/03/20 04:48:26;;;;;;;10.43;6.30;;;5.00;88.30;;;3.31;72.34;100176.50;10249112;28;98182;-85
2023/03/20 04:53:29;;;;;;;11.70;6.97;;;5.00;88.80;;;3.32;72.21;100171.13;10253886;28;96645;-86
2023/03/20 04:58:34;;;;;;;14.07;5.70;;;5.00;89.30;;;3.30;71.71;100175.69;10250556;28;96593;-84
2023/03/20 05:03:38;;;;;;;13.33;5.77;;;5.00;89.60;;;3.32;71.82;100181.63;10252754;28;96635;-85
2023/03/20 05:08:41;;;;;;;12.27;6.30;;;5.00;89.90;;;3.32;71.82;100171.13;10244358;28;97710;-87
2023/03/20 05:13:44;;;;;;;8.57;4.87;;;5.00;90.10;;;3.35;72.19;100185.78;10218241;28;97479;-90
2023/03/20 05:18:47;;;;;;;11.93;5.33;;;5.00;90.10;;;3.37;72.41;100189.16;10246039;28;96886;-90
2023/03/20 05:23:51;;;;;;;26.60;11.20;;;5.00;90.50;;;3.43;72.85;100178.16;10270852;28;98498;-89
2023/03/20 05:28:53;;;;;;;19.43;9.43;;;5.10;90.80;;;3.52;73.22;100182.66;10233475;28;98034;-88
2023/03/20 05:33:57;;;;;;;20.60;10.70;;;5.10;91.20;;;3.65;73.15;100193.84;10267630;28;96659;-89
2023/03/20 05:39:00;;;;;;;16.70;9.13;;;5.20;91.30;;;3.76;73.80;100185.94;10237311;28;96520;-89
2023/03/20 05:44:03;;;;;;;14.00;8.50;;;5.30;91.80;;;3.89;73.21;100190.19;10203686;28;96860;-90
2023/03/20 05:49:07;;;;;;;13.73;7.57;;;5.40;91.80;;;4.01;73.16;100192.66;10263613;28;98978;-90
2023/03/20 05:54:10;;;;;;;13.70;6.57;;;5.60;92.00;;;4.16;73.27;100187.09;10216269;28;97883;-89
2023/03/20 05:59:13;;;;;;;12.10;7.70;;;5.70;92.00;;;4.32;72.70;100194.53;10260317;28;96876;-90
2023/03/20 06:04:16;;;;;;;11.00;6.43;;;5.80;92.10;;;4.49;72.65;100202.69;10236124;28;96495;-89
2023/03/20 06:09:19;;;;;;;12.57;5.73;;;5.90;92.20;;;4.67;72.49;100208.19;10251825;28;96531;-89
2023/03/20 06:14:22;;;;;;;11.10;6.37;;;6.10;92.20;;;4.91;72.15;100200.00;10249371;28;97390;-89
2023/03/20 06:19:25;;;;;;;25.60;12.27;;;6.30;92.40;;;5.26;72.39;100211.94;10210046;28;96956;-89
2023/03/20 06:24:29;;;;;;;27.73;14.40;;;6.60;92.60;;;5.64;72.00;100209.44;10203211;28;96539;-88
2023/03/20 06:29:32;;;;;;;20.17;11.57;;;6.90;93.10;;;6.00;71.58;100215.06;10275525;28;96412;-89
2023/03/20 06:34:36;;;;;;;12.77;6.47;;;7.30;93.00;;;6.30;70.51;100210.63;10292112;28;96385;-89
2023/03/20 06:39:40;;;;;;;9.50;5.50;;;7.60;92.70;;;6.61;69.05;100214.75;10243653;28;97415;-88
2023/03/20 06:44:43;;;;;;;10.63;5.77;;;7.90;92.40;;;6.86;68.02;100209.81;10251980;28;96624;-88
2023/03/20 06:49:46;;;;;;;18.37;10.17;;;8.10;92.00;;;7.15;67.32;100217.66;10232954;28;96618;-90
2023/03/20 06:54:50;;;;;;;53.60;27.47;;;8.40;91.80;;;7.51;66.34;100223.88;10280149;28;96921;-87
2023/03/20 06:59:54;;;;;;;17.63;10.17;;;8.70;91.50;;;7.86;65.77;100222.28;10267902;28;96669;-88
2023/03/20 07:04:56;;;;;;;18.93;9.43;;;9.00;91.20;;;8.26;64.66;100224.47;10277768;28;96514;-88
2023/03/20 07:10:00;;;;;;;21.17;13.97;;;9.40;90.90;;;8.66;63.39;100215.22;10246817;28;97269;-88
2023/03/20 07:15:04;;;;;;;14.93;8.80;;;9.80;90.50;;;9.00;62.49;100213.44;10272075;28;97277;-88
2023/03/20 07:20:08;;;;;;;11.87;7.53;;;10.10;90.00;;;9.34;60.90;100205.47;10268558;28;98171;-88
2023/03/20 07:25:12;;;;;;;11.43;7.23;;;10.40;88.80;;;9.65;60.00;100208.44;10291409;28;96464;-88
2023/03/20 07:30:17;;;;;;;12.50;7.30;;;10.80;87.50;;;10.01;58.82;100210.78;10276216;28;96477;-87
2023/03/20 07:35:21;;;;;;;14.47;9.13;;;11.10;86.60;;;10.38;57.73;100205.06;10276640;28;97546;-87
2023/03/20 07:40:24;;;;;;;18.63;9.83;;;11.50;85.10;;;10.65;56.40;100205.69;10266027;28;96504;-88
2023/03/20 07:45:27;;;;;;;25.03;9.83;;;11.70;83.60;;;10.86;55.36;100198.03;10249952;28;96779;-87
2023/03/20 07:50:31;;;;;;;29.33;11.27;;;12.00;82.40;;;11.12;54.86;100197.78;10246659;28;97376;-87
2023/03/20 07:55:34;;;;;;;25.23;9.30;;;12.40;81.10;;;11.50;54.43;100205.94;10286121;28;96518;-87
2023/03/20 08:00:37;;;;;;;20.17;8.03;;;12.60;80.30;;;11.89;53.90;100203.28;10275056;28;96589;-87
2023/03/20 08:05:40;;;;;;;19.00;8.80;;;13.00;79.60;;;12.30;53.02;100208.31;10236891;28;96575;-87
2023/03/20 08:10:44;;;;;;;16.70;8.32;;;13.30;78.50;;;12.78;51.25;100200.91;10230900;28;97067;-85
2023/03/20 08:15:47;;;;;;;24.98;11.02;;;13.70;77.30;;;13.04;49.78;100195.09;10257832;28;96563;-86
2023/03/20 08:20:50;;;;;;;29.98;13.32;;;14.00;75.00;;;13.44;50.04;100207.19;10296316;28;96504;-86
2023/03/20 08:25:53;;;;;;;23.17;11.65;;;14.30;74.80;;;13.79;48.49;100205.50;10247244;28;96751;-86
2023/03/20 08:30:56;;;;;;;32.85;14.70;;;14.70;73.40;;;14.04;46.20;100205.19;10270993;28;96603;-86
2023/03/20 08:35:59;;;;;;;23.92;13.20;;;15.00;71.50;;;14.24;46.75;100206.19;10282912;28;96647;-85
2023/03/20 08:41:03;;;;;;;23.33;10.18;;;15.30;71.00;;;14.53;45.24;100197.22;10267774;28;96438;-85
2023/03/20 08:46:06;;;;;;;22.55;8.93;;;15.60;68.70;;;14.96;44.65;100200.63;10197878;28;96890;-86
2023/03/20 08:51:10;;;;;;;23.40;7.72;;;15.90;67.90;;;15.31;43.94;100207.81;10273040;28;96597;-86
2023/03/20 08:56:13;;;;;;;15.52;7.25;;;16.20;66.70;;;15.73;43.44;100207.63;10257183;28;96561;-85
2023/03/20 09:01:16;;;;;;;12.52;5.75;;;16.60;65.70;;;16.02;41.14;100209.16;10278631;28;96621;-86
2023/03/20 09:06:19;;;;;;;7.28;5.20;;;17.00;63.30;;;16.25;39.76;100213.28;10260464;28;96579;-86
2023/03/20 09:11:23;;;;;;;7.40;5.35;;;17.30;61.80;;;16.48;38.51;100213.72;10274217;28;98385;-87
2023/03/20 09:16:26;;;;;;;10.27;5.18;;;17.50;60.10;;;16.88;37.93;100210.25;10287425;28;97910;-86
2023/03/20 09:21:30;;;;;;;6.82;5.35;;;17.80;59.20;;;17.03;36.50;100200.06;10275403;28;96530;-86
2023/03/20 09:26:33;;;;;;;8.45;5.15;;;18.20;57.50;;;17.23;36.75;100203.56;10269852;28;96806;-87
2023/03/20 09:31:36;;;;;;;11.70;5.82;;;18.30;56.70;;;17.58;36.96;100204.06;10297535;28;96515;-86
2023/03/20 09:36:40;;;;;;;5.68;4.43;;;18.60;56.30;;;17.76;36.18;100192.63;10297485;28;96646;-87
2023/03/20 09:41:51;;;;;;;7.53;4.32;;;18.80;55.60;;;18.03;35.78;100192.47;10247512;28;97610;-87
2023/03/20 09:47:22;;;;;;;9.38;4.07;;;19.10;54.40;;;18.17;35.19;100188.63;10234449;28;96589;-87
2023/03/20 09:52:33;;;;;;;6.03;3.90;;;19.30;53.90;;;18.45;35.16;100186.34;10279047;28;96795;-87
2023/03/20 09:57:44;;;;;;;6.93;3.90;;;19.50;53.80;;;18.85;33.99;100179.84;10274798;28;97965;-87
2023/03/20 10:03:00;;;;;;;6.60;4.57;;;19.90;52.90;;;19.15;33.01;100172.66;10274940;28;96474;-87
2023/03/20 10:08:10;;;;;;;6.07;4.43;;;20.20;51.90;;;19.30;32.13;100177.66;10277067;28;96502;-87
2023/03/20 10:13:51;;;;;;;5.38;4.43;;;20.40;50.60;;;19.52;32.10;100189.63;10253716;28;96527;-87
2023/03/20 10:19:22;;;;;;;6.43;4.50;;;20.60;49.40;;;19.50;31.61;100180.97;10292737;28;96452;-87
2023/03/20 10:24:41;;;;;;;8.57;4.75;;;20.70;48.80;;;19.36;30.81;100184.84;10236631;28;96577;-87
2023/03/20 10:30:44;;;;;;;8.93;4.97;;;20.80;47.90;;;19.34;31.09;100169.97;10250216;28;96493;-87
2023/03/20 10:36:09;;;;;;;7.13;5.03;;;20.70;47.90;;;19.49;31.55;100170.38;10258969;28;96609;-86
2023/03/20 10:41:20;;;;;;;9.35;4.60;;;20.70;48.30;;;19.64;31.11;100170.03;10274220;28;96645;-87
2023/03/20 10:46:30;;;;;;;7.68;4.97;;;20.90;48.10;;;19.90;30.64;100163.44;10256417;28;96587;-86
2023/03/20 10:51:57;;;;;;;7.05;4.63;;;21.20;47.50;;;19.98;30.76;100157.72;10251350;28;96537;-86
2023/03/20 10:57:04;;;;;;;8.13;4.03;;;21.30;47.20;;;20.04;30.55;100154.13;10273249;28;96615;-86
2023/03/20 11:02:13;;;;;;;4.78;3.92;;;21.30;47.00;;;20.34;29.80;100151.34;10235214;28;96408;-87
2023/03/20 11:07:33;;;;;;;5.77;4.63;;;21.40;46.50;;;20.47;29.02;100151.16;10237137;28;96747;-86
2023/03/20 11:12:44;;;;;;;7.45;5.28;;;21.60;46.80;;;20.20;28.80;100139.13;10241084;28;98136;-86
2023/03/20 11:18:06;;;;;;;9.77;5.22;;;21.30;45.50;;;20.10;29.24;100136.19;10256126;28;96653;-86
2023/03/20 11:23:19;;;;;;;7.10;5.70;;;21.20;45.10;;;19.66;29.58;100131.00;10276773;28;97189;-86
2023/03/20 11:28:38;;;;;;;6.32;5.03;;;20.80;45.40;;;19.37;30.01;100127.25;10232541;28;96644;-86
2023/03/20 11:34:06;;;;;;;6.65;4.82;;;20.50;46.00;;;19.36;30.72;100122.06;10250086;28;96544;-86
2023/03/20 11:39:15;;;;;;;7.38;4.90;;;20.40;46.20;;;19.36;30.48;100119.34;10264497;28;96873;-86
2023/03/20 11:44:35;;;;;;;7.03;5.18;;;20.50;46.20;;;19.48;30.75;100112.97;10272477;28;96608;-86
2023/03/20 11:49:56;;;;;;;9.48;6.60;;;20.60;46.40;;;19.55;30.08;100115.56;10274303;28;96426;-86
2023/03/20 11:55:05;;;;;;;7.97;5.78;;;20.60;45.70;;;19.50;30.37;100110.88;10270624;28;96583;-86
2023/03/20 12:00:23;;;;;;;9.23;6.00;;;20.60;46.10;;;19.34;30.30;100111.50;10229983;28;96823;-86
2023/03/20 12:05:35;;;;;;;8.13;5.82;;;20.50;46.00;;;19.06;30.65;100114.75;10260546;28;97323;-87
2023/03/20 12:10:43;;;;;;;6.70;5.75;;;20.20;46.10;;;19.18;31.38;100098.66;10261424;28;96515;-87
2023/03/20 12:15:54;;;;;;;8.00;5.63;;;20.30;46.60;;;19.53;30.81;100088.03;10279635;28;97385;-87
2023/03/20 12:21:13;;;;;;;8.52;6.55;;;20.70;46.40;;;19.47;30.12;100087.06;10279882;28;96586;-86
2023/03/20 12:26:25;;;;;;;9.68;6.65;;;20.90;45.80;;;19.46;30.80;100081.91;10285136;28;96923;-87
2023/03/20 12:31:57;;;;;;;9.10;6.90;;;20.80;46.00;;;19.38;32.18;100082.25;10239739;28;96679;-88
2023/03/20 12:37:01;;;;;;;8.90;6.32;;;20.80;46.80;;;19.30;32.11;100077.16;10251462;28;96641;-87
2023/03/20 12:42:15;;;;;;;10.50;7.95;;;20.70;46.70;;;19.01;32.38;100081.47;10289963;28;96572;-88
2023/03/20 12:48:15;;;;;;;9.68;7.00;;;20.60;47.10;;;18.79;33.49;100075.72;10279904;28;96477;-87
2023/03/20 12:53:36;;;;;;;10.48;6.78;;;20.30;48.20;;;18.70;33.56;100073.31;10297147;28;96510;-88
2023/03/20 12:58:51;;;;;;;11.27;6.93;;;20.20;48.20;;;18.72;33.50;100065.03;10243586;28;96762;-87
2023/03/20 13:04:17;;;;;;;9.02;6.63;;;20.10;48.20;;;18.81;33.95;100065.56;10250518;28;96461;-86
2023/03/20 13:09:36;;;;;;;11.32;7.03;;;20.10;48.60;;;18.54;34.43;100059.63;10265309;28;96406;-87
2023/03/20 13:15:27;;;;;;;10.07;7.18;;;19.90;48.80;;;18.25;34.50;100053.91;10252311;28;96561;-88
2023/03/20 13:21:02;;;;;;;10.00;7.20;;;19.80;48.90;;;18.17;34.97;100046.09;10197111;28;96843;-87
2023/03/20 13:26:33;;;;;;;17.10;8.05;;;19.70;49.00;;;18.11;35.29;100037.06;10209550;28;96636;-87
2023/03/20 13:32:09;;;;;;;10.35;7.47;;;19.70;49.40;;;18.19;34.93;100039.47;10279549;28;97809;-88
2023/03/20 13:37:32;;;;;;;9.60;6.55;;;19.80;49.20;;;18.48;34.40;100028.22;10250149;28;96557;-87
2023/03/20 13:42:58;;;;;;;7.13;5.43;;;20.00;48.80;;;18.76;34.67;100025.84;10271313;28;96607;-87
2023/03/20 13:48:20;;;;;;;9.90;6.38;;;20.30;48.70;;;19.04;33.18;100019.09;10261436;28;96500;-86
2023/03/20 13:53:42;;;;;;;7.60;5.60;;;20.50;48.30;;;19.13;34.48;100013.16;10260467;28;96506;-88
2023/03/20 13:59:02;;;;;;;9.20;6.05;;;20.60;48.70;;;19.09;33.50;100021.91;10220146;28;98266;-85
2023/03/20 14:04:14;;;;;;;7.50;5.93;;;20.70;47.80;;;19.01;33.92;100028.44;10210862;28;96409;-87
2023/03/20 14:09:26;;;;;;;9.43;5.95;;;20.60;48.50;;;18.87;34.10;100032.34;10247266;28;96625;-88
2023/03/20 14:14:49;;;;;;;10.57;6.85;;;20.40;48.70;;;18.63;34.65;100029.47;10215706;28;96569;-86
2023/03/20 14:19:53;;;;;;;15.73;7.38;;;20.20;48.80;;;18.21;36.15;100025.78;10250407;28;96456;-88
2023/03/20 14:25:08;;;;;;;10.40;6.68;;;19.80;50.00;;;17.98;36.01;100022.91;10257769;28;96646;-87
2023/03/20 14:30:29;;;;;;;9.07;6.05;;;19.40;50.70;;;17.95;37.20;100021.50;10260295;28;97809;-87
2023/03/20 14:35:42;;;;;;;9.43;6.82;;;19.40;51.60;;;18.24;36.92;100011.91;10287706;28;96843;-87
2023/03/20 14:40:52;;;;;;;11.15;7.35;;;19.70;51.40;;;18.77;36.17;100007.81;10237964;28;96857;-86
2023/03/20 14:46:40;;;;;;;10.43;7.50;;;20.30;50.50;;;19.12;35.04;100005.28;10194395;28;96673;-87
2023/03/20 14:51:47;;;;;;;8.23;6.38;;;20.70;49.90;;;19.33;35.11;100012.88;10225422;28;96693;-87
2023/03/20 14:56:51;;;;;;;10.13;7.80;;;21.10;49.50;;;19.25;35.17;100007.78;10254650;28;96637;-87
2023/03/20 15:02:02;;;;;;;11.35;6.70;;;21.10;49.00;;;18.89;35.51;100014.09;10226721;28;98018;-87
2023/03/20 15:07:38;;;;;;;;;;;20.60;49.60;;;18.71;36.73;100004.16;10223475;28;96706;-85
2023/03/20 15:12:42;;;;;;;7.72;5.35;;;20.30;50.70;;;18.93;35.95;100002.63;10213539;28;99232;-85
2023/03/20 15:17:48;;;;;;;6.68;5.43;;;20.70;50.30;;;19.02;36.56;99994.25;10237235;28;96650;-87
2023/03/20 15:22:54;;;;;;;6.55;4.85;;;20.70;50.20;;;19.14;36.15;99987.06;10289068;28;96779;-86
2023/03/20 15:28:00;;;;;;;8.75;5.55;;;20.80;50.30;;;19.27;36.62;99986.84;10267796;28;97276;-88
2023/03/20 15:33:04;;;;;;;6.88;4.70;;;20.90;50.40;;;19.26;36.45;99993.31;10261693;28;96557;-88
2023/03/20 15:38:08;;;;;;;6.63;4.57;;;21.00;50.20;;;19.13;36.48;99997.00;10239209;28;96533;-87
2023/03/20 15:43:23;;;;;;;15.02;8.65;;;20.80;50.40;;;18.93;36.58;99999.13;10286666;28;96602;-88
2023/03/20 15:48:26;;;;;;;12.73;7.60;;;20.60;50.70;;;18.62;37.64;100002.81;10248301;28;96717;-87
2023/03/20 15:53:34;;;;;;;9.35;5.78;;;20.30;51.50;;;18.26;38.32;100000.94;10263453;28;96459;-90
2023/03/20 15:58:40;;;;;;;7.03;4.78;;;19.90;52.30;;;17.92;38.95;100006.59;10236892;28;97586;-91
2023/03/20 16:03:44;;;;;;;9.07;5.38;;;19.40;52.90;;;17.57;39.46;100003.59;10247018;28;96660;-90
2023/03/20 16:09:04;;;;;;;8.60;4.63;;;19.00;53.50;;;17.22;40.34;100002.38;10256284;28;96718;-90
2023/03/20 16:14:22;;;;;;;8.48;5.32;;;18.50;54.80;;;16.83;41.06;100010.41;10266451;28;97443;-88
2023/03/20 16:19:27;;;;;;;20.13;11.35;;;18.20;55.60;;;16.52;41.84;100023.69;10282914;28;96607;-92
2023/03/20 16:24:37;;;;;;;17.38;11.20;;;17.80;56.10;;;16.19;42.79;100016.56;10251526;28;98544;-87
2023/03/20 16:29:49;;;;;;;10.68;5.85;;;17.50;57.00;;;15.89;43.33;100020.69;10242281;28;96643;-92
2023/03/20 16:34:58;;;;;;;7.38;4.78;;;17.20;57.40;;;15.62;43.89;100026.06;10269277;28;96826;-89
2023/03/20 16:40:26;;;;;;;7.28;4.18;;;16.90;57.90;;;15.43;44.08;100045.56;10251595;28;96906;-86
2023/03/20 16:45:43;;;;;;;9.68;3.92;;;16.70;58.10;;;15.19;44.27;100044.28;10243222;28;98656;-93
2023/03/20 16:50:55;;;;;;;5.40;3.03;;;16.50;58.40;;;14.92;44.65;100048.69;10260968;28;96933;-93
2023/03/20 16:56:06;;;;;;;7.22;3.53;;;16.30;58.40;;;14.70;44.92;100045.31;10258843;28;96685;-93
2023/03/20 17:01:21;;;;;;;4.22;3.13;;;16.10;58.70;;;14.52;45.31;100043.16;10256864;28;96580;-92
2023/03/20 17:06:42;;;;;;;5.40;3.28;;;15.90;59.00;;;14.30;45.96;100042.38;10242909;28;97090;-94
2023/03/20 17:11:56;;;;;;;7.13;3.65;;;15.70;59.60;;;14.12;46.80;100048.22;10245872;28;96697;-91
2023/03/20 17:16:59;;;;;;;5.95;3.25;;;15.50;60.20;;;13.90;47.14;100047.41;10270915;28;98079;-92
2023/03/20 17:22:15;;;;;;;4.45;3.38;;;15.30;60.70;;;13.79;47.83;100049.78;10260115;28;96836;-93
2023/03/20 17:27:19;;;;;;;5.80;3.80;;;15.10;61.40;;;13.66;48.28;100051.31;10259448;28;96549;-93
2023/03/20 17:32:23;;;;;;;6.27;3.70;;;15.00;61.90;;;13.54;48.65;100047.50;10256667;28;96436;-93
2023/03/20 17:37:28;;;;;;;7.67;4.30;;;14.80;62.20;;;13.44;49.34;100052.34;10240835;28;96974;-93
2023/03/20 17:42:32;;;;;;;5.60;3.53;;;14.70;63.00;;;13.33;49.63;100053.69;10263058;28;96747;-94
2023/03/20 17:47:36;;;;;;;6.27;4.13;;;14.60;63.50;;;13.23;49.99;100060.34;10253105;28;97540;-93
2023/03/20 17:52:40;;;;;;;5.73;3.97;;;14.50;63.90;;;13.14;50.36;100054.25;10199612;28;96483;-93
2023/03/20 17:57:43;;;;;;;9.50;5.37;;;14.40;64.20;;;13.07;50.61;100067.53;10273007;28;98643;-93
2023/03/20 18:02:46;;;;;;;7.57;4.00;;;14.40;64.70;;;12.98;51.04;100073.97;10282444;28;97042;-93
2023/03/20 18:07:49;;;;;;;6.03;4.20;;;14.20;65.00;;;12.94;51.44;100078.00;10258569;28;97346;-94
2023/03/20 18:12:52;;;;;;;8.27;3.97;;;14.20;65.50;;;12.87;51.51;100074.44;10285067;28;97092;-93
2023/03/20 18:17:56;;;;;;;8.07;4.33;;;14.10;65.60;;;12.80;51.92;100074.34;10275052;28;96497;-93
2023/03/20 18:22:59;;;;;;;7.57;3.90;;;14.10;66.00;;;12.76;52.35;100080.25;10288382;28;96951;-93
2023/03/20 18:28:06;;;;;;;6.43;4.13;;;14.00;66.30;;;12.70;52.41;100086.31;10279681;28;96679;-92
2023/03/20 18:33:12;;;;;;;7.40;4.83;;;14.00;66.70;;;12.59;52.90;100069.78;10300030;28;96670;-92
2023/03/20 18:38:16;;;;;;;7.40;4.53;;;13.90;67.00;;;12.54;53.18;100074.84;10259283;28;96698;-92
2023/03/20 18:43:21;;;;;;;9.43;4.60;;;13.80;67.40;;;12.48;53.71;100078.22;10249677;28;96636;-93
2023/03/20 18:48:24;;;;;;;6.70;4.40;;;13.70;67.80;;;12.48;53.83;100072.06;10260754;28;96437;-91
2023/03/20 18:53:29;;;;;;;7.23;4.43;;;13.70;68.10;;;12.47;54.50;100081.06;10265593;28;96564;-94
2023/03/20 18:58:32;;;;;;;8.80;5.43;;;13.70;68.50;;;12.48;54.36;100083.56;10252727;28;96790;-93
2023/03/20 19:03:38;;;;;;;5.90;3.90;;;13.70;69.00;;;12.52;54.42;100086.66;10232027;28;97050;-95
2023/03/20 19:08:42;;;;;;;9.53;4.80;;;13.70;68.90;;;12.51;54.41;100090.34;10247094;28;97310;-94
2023/03/20 19:13:51;;;;;;;7.60;4.67;;;13.70;68.90;;;12.54;54.52;100088.16;10233544;28;97407;-94
2023/03/20 19:19:00;;;;;;;7.80;5.07;;;13.70;69.30;;;12.53;54.40;100083.00;10248319;28;97299;-94
2023/03/20 19:24:05;;;;;;;8.67;4.97;;;13.80;69.30;;;12.51;54.68;100088.50;10262534;28;98581;-94
2023/03/20 19:29:12;;;;;;;11.37;5.80;;;13.80;69.40;;;12.48;54.88;100088.91;10236573;28;96506;-93
2023/03/20 19:34:15;;;;;;;10.83;5.40;;;13.70;69.60;;;12.47;55.27;100089.88;10251606;28;97169;-94
2023/03/20 19:39:38;;;;;;;6.83;4.73;;;13.70;70.20;;;12.50;55.67;100086.03;10237492;28;99083;-94
2023/03/20 19:44:41;;;;;;;7.67;4.53;;;13.70;70.50;;;12.49;55.64;100085.22;10270598;28;97537;-85
2023/03/20 19:49:45;;;;;;;5.93;3.77;;;13.70;70.80;;;12.52;56.12;100084.84;10250258;28;96716;-92
2023/03/20 19:54:48;;;;;;;6.80;4.40;;;13.70;71.10;;;12.61;55.88;100080.25;10243930;28;97948;-93
2023/03/20 20:00:07;;;;;;;5.73;4.30;;;13.80;71.40;;;12.64;55.76;100084.38;10240290;28;98142;-94
2023/03/20 20:05:36;;;;;;;7.80;4.83;;;13.80;71.30;;;12.62;56.17;100086.41;10260211;28;96479;-92
2023/03/20 20:10:49;;;;;;;9.23;5.63;;;13.80;71.40;;;12.53;56.16;100081.19;10266798;28;96868;-94
2023/03/20 20:15:53;;;;;;;9.37;5.80;;;13.80;71.50;;;12.50;56.31;100083.38;10256942;28;96813;-94
2023/03/20 20:20:57;;;;;;;10.33;6.20;;;13.70;71.70;;;12.45;56.34;100085.75;10255609;28;97484;-95
2023/03/20 20:26:20;;;;;;;7.77;5.60;;;13.70;71.80;;;12.36;56.50;100085.03;10247565;28;96613;-95
2023/03/20 20:31:30;;;;;;;7.47;5.40;;;13.60;71.80;;;12.22;56.62;100093.81;10254319;28;96739;-94
2023/03/20 20:36:34;;;;;;;10.07;5.77;;;13.50;71.70;;;12.02;56.94;100083.66;10272986;28;96704;-93
2023/03/20 20:41:58;;;;;;;10.03;6.20;;;13.40;71.90;;;11.92;57.46;100093.72;10270295;28;97653;-94
2023/03/20 20:47:01;;;;;;;15.70;9.63;;;13.30;72.60;;;11.71;57.87;100090.88;10254888;28;96639;-93
2023/03/20 20:52:04;;;;;;;11.30;7.23;;;13.10;72.50;;;11.44;58.81;100093.03;10263231;28;96756;-94
2023/03/20 20:57:13;;;;;;;10.03;7.37;;;12.90;72.90;;;11.19;59.47;100097.69;10251047;28;98155;-95
2023/03/20 21:02:16;;;;;;;7.53;5.87;;;12.60;73.50;;;11.05;60.09;100100.25;10269611;28;97647;-93
2023/03/20 21:07:20;;;;;;;9.63;6.30;;;12.50;74.20;;;10.94;60.99;100090.81;10256521;28;96498;-94
2023/03/20 21:12:22;;;;;;;8.23;6.23;;;12.40;74.80;;;10.87;61.72;100085.38;10270550;28;96562;-94
2023/03/20 21:17:42;;;;;;;10.23;7.37;;;12.30;75.50;;;10.95;62.09;100085.34;10240752;28;96645;-94
2023/03/20 21:23:01;;;;;;;10.87;6.67;;;12.30;76.90;;;11.02;62.92;100090.78;10254701;28;96487;-95